createdAt,value
2022-10-18T00:02:27.350Z,14.19
2022-10-18T00:04:56.020Z,14.18
2022-10-18T00:07:23.820Z,14.17
2022-10-18T00:09:51.559Z,14.17
2022-10-18T00:12:19.265Z,14.16
2022-10-18T00:14:53.192Z,14.15
2022-10-18T00:17:22.037Z,14.13
2022-10-18T00:19:55.136Z,14.13
2022-10-18T00:22:22.998Z,14.16
2022-10-18T00:24:51.233Z,14.21
2022-10-18T00:27:20.093Z,14.25
2022-10-18T00:29:51.934Z,14.31
2022-10-18T00:32:29.440Z,14.39
2022-10-18T00:34:59.510Z,14.47
2022-10-18T00:38:01.107Z,14.55
2022-10-18T00:40:29.909Z,14.61
2022-10-18T00:43:00.937Z,14.65
2022-10-18T00:46:02.084Z,14.67
2022-10-18T00:48:38.205Z,14.70
2022-10-18T00:51:06.276Z,14.71
2022-10-18T00:53:34.199Z,14.73
2022-10-18T00:56:03.011Z,14.74
2022-10-18T00:58:32.109Z,14.78
2022-10-18T01:00:59.769Z,14.80
2022-10-18T01:03:29.698Z,14.80
2022-10-18T01:05:57.724Z,14.79
2022-10-18T01:08:49.445Z,14.77
2022-10-18T01:11:26.653Z,14.75
2022-10-18T01:14:10.215Z,14.75
2022-10-18T01:16:52.591Z,14.75
2022-10-18T01:19:40.175Z,14.75
2022-10-18T01:22:42.585Z,14.73
2022-10-18T01:25:15.076Z,14.69
2022-10-18T01:28:28.269Z,14.66
2022-10-18T01:31:05.078Z,14.62
2022-10-18T01:33:51.522Z,14.59
2022-10-18T01:36:34.222Z,14.56
2022-10-18T01:39:12.993Z,14.53
2022-10-18T01:41:43.509Z,14.48
2022-10-18T01:44:26.904Z,14.42
2022-10-18T01:47:00.423Z,14.37
2022-10-18T01:49:29.304Z,14.36
2022-10-18T01:51:57.149Z,14.35
2022-10-18T01:54:39.894Z,14.35
2022-10-18T01:57:41.821Z,14.31
2022-10-18T02:00:28.677Z,14.29
2022-10-18T02:03:32.952Z,14.26
2022-10-18T02:06:17.005Z,14.24
2022-10-18T02:08:55.236Z,14.19
2022-10-18T02:11:23.090Z,14.17
2022-10-18T02:13:53.631Z,14.14
2022-10-18T02:16:33.533Z,14.11
2022-10-18T02:19:15.005Z,14.11
2022-10-18T02:21:45.661Z,14.09
2022-10-18T02:24:15.313Z,14.08
2022-10-18T02:26:44.442Z,14.05
2022-10-18T02:29:17.532Z,14.02
2022-10-18T02:31:53.262Z,13.96
2022-10-18T02:34:46.669Z,13.92
2022-10-18T02:37:16.169Z,13.90
2022-10-18T02:39:48.164Z,13.89
2022-10-18T02:42:24.028Z,13.87
2022-10-18T02:44:53.917Z,13.86
2022-10-18T02:47:21.661Z,13.85
2022-10-18T02:49:49.412Z,13.84
2022-10-18T02:52:22.038Z,13.87
2022-10-18T02:54:52.919Z,13.88
2022-10-18T02:57:26.038Z,13.88
2022-10-18T02:59:53.853Z,13.88
2022-10-18T03:02:24.968Z,13.86
2022-10-18T03:04:52.739Z,13.81
2022-10-18T03:07:20.818Z,13.73
2022-10-18T03:09:49.577Z,13.68
2022-10-18T03:12:22.991Z,13.66
2022-10-18T03:14:54.023Z,13.65
2022-10-18T03:17:24.990Z,13.64
2022-10-18T03:19:53.759Z,13.65
2022-10-18T03:22:22.969Z,13.67
2022-10-18T03:24:58.160Z,13.70
2022-10-18T03:27:28.033Z,13.75
2022-10-18T03:30:00.950Z,13.80
2022-10-18T03:32:28.913Z,13.84
2022-10-18T03:34:57.886Z,13.85
2022-10-18T03:37:30.630Z,13.84
2022-10-18T03:39:58.420Z,13.87
2022-10-18T03:42:26.358Z,13.89
2022-10-18T03:44:55.160Z,13.89
2022-10-18T03:47:29.160Z,13.91
2022-10-18T03:49:59.033Z,13.94
2022-10-18T03:52:26.797Z,13.97
2022-10-18T03:54:55.609Z,13.99
2022-10-18T03:57:25.454Z,14.01
2022-10-18T03:59:54.190Z,14.04
2022-10-18T04:02:25.673Z,14.05
2022-10-18T04:04:54.715Z,14.07
2022-10-18T04:07:26.266Z,14.06
2022-10-18T04:09:55.174Z,14.06
2022-10-18T04:12:31.055Z,14.06
2022-10-18T04:15:00.121Z,14.07
2022-10-18T04:17:29.365Z,14.08
2022-10-18T04:19:57.459Z,14.07
2022-10-18T04:22:27.373Z,14.07
2022-10-18T04:24:56.835Z,14.07
2022-10-18T04:27:25.736Z,14.08
2022-10-18T04:29:54.516Z,14.07
2022-10-18T04:32:23.279Z,14.06
2022-10-18T04:34:52.144Z,14.04
2022-10-18T04:37:23.612Z,14.01
2022-10-18T04:39:53.659Z,13.98
2022-10-18T04:42:23.708Z,13.96
2022-10-18T04:44:51.467Z,13.95
2022-10-18T04:47:19.244Z,13.96
2022-10-18T04:49:53.114Z,13.95
2022-10-18T04:52:26.181Z,13.94
2022-10-18T04:55:01.104Z,13.91
2022-10-18T04:58:08.985Z,13.87
2022-10-18T05:00:40.235Z,13.85
2022-10-18T05:03:11.339Z,13.81
2022-10-18T05:06:00.317Z,13.79
2022-10-18T05:08:28.556Z,13.79
2022-10-18T05:10:57.608Z,13.80
2022-10-18T05:13:26.296Z,13.82
2022-10-18T05:15:55.588Z,13.83
2022-10-18T05:18:31.268Z,13.83
2022-10-18T05:21:00.107Z,13.84
2022-10-18T05:23:28.018Z,13.84
2022-10-18T05:26:02.520Z,13.82
2022-10-18T05:28:45.902Z,13.83
2022-10-18T05:31:18.935Z,13.84
2022-10-18T05:33:47.841Z,13.88
2022-10-18T05:36:16.624Z,13.90
2022-10-18T05:38:45.621Z,13.98
2022-10-18T05:41:17.109Z,14.01
2022-10-18T05:43:52.081Z,14.04
2022-10-18T05:46:20.790Z,14.07
2022-10-18T05:48:51.420Z,14.08
2022-10-18T05:51:22.928Z,14.12
2022-10-18T05:53:52.998Z,14.13
2022-10-18T05:56:20.670Z,14.19
2022-10-18T05:58:51.822Z,14.23
2022-10-18T06:01:20.025Z,14.25
2022-10-18T06:03:50.449Z,14.29
2022-10-18T06:06:18.342Z,14.33
2022-10-18T06:08:49.181Z,14.34
2022-10-18T06:11:18.880Z,14.43
2022-10-18T06:13:52.731Z,14.45
2022-10-18T06:16:32.243Z,14.46
2022-10-18T06:19:01.674Z,14.49
2022-10-18T06:21:30.465Z,14.50
2022-10-18T06:23:59.503Z,14.54
2022-10-18T06:26:29.560Z,14.55
2022-10-18T06:28:58.452Z,14.59
2022-10-18T06:31:34.231Z,14.63
2022-10-18T06:34:04.887Z,14.66
2022-10-18T06:36:32.746Z,14.70
2022-10-18T06:39:02.703Z,14.75
2022-10-18T06:41:32.416Z,14.85
2022-10-18T06:44:13.772Z,14.95
2022-10-18T06:46:43.621Z,15.03
2022-10-18T06:49:24.526Z,15.13
2022-10-18T06:51:53.986Z,15.23
2022-10-18T06:54:29.141Z,15.32
2022-10-18T06:56:58.555Z,15.44
2022-10-18T06:59:31.383Z,15.56
2022-10-18T07:02:00.600Z,15.70
2022-10-18T07:04:29.977Z,15.89
2022-10-18T07:06:58.801Z,16.35
2022-10-18T07:09:28.726Z,17.05
2022-10-18T07:11:58.649Z,17.84
2022-10-18T07:14:29.238Z,18.64
2022-10-18T07:16:59.687Z,19.46
2022-10-18T07:19:31.985Z,20.20
2022-10-18T07:22:04.031Z,20.80
2022-10-18T07:24:36.147Z,21.40
2022-10-18T07:27:05.045Z,21.96
2022-10-18T07:29:40.513Z,22.46
2022-10-18T07:32:08.243Z,22.86
2022-10-18T07:34:38.052Z,23.27
2022-10-18T07:37:06.838Z,23.64
2022-10-18T07:39:38.089Z,24.05
2022-10-18T07:42:10.255Z,24.42
2022-10-18T07:44:40.047Z,24.78
2022-10-18T07:47:12.157Z,25.00
2022-10-18T07:49:47.035Z,25.16
2022-10-18T07:52:14.849Z,25.28
2022-10-18T07:54:43.937Z,25.37
2022-10-18T07:57:13.806Z,25.52
2022-10-18T07:59:48.365Z,25.60
2022-10-18T08:02:18.347Z,25.81
2022-10-18T08:04:47.120Z,26.20
2022-10-18T08:07:16.099Z,26.49
2022-10-18T08:09:49.364Z,26.51
2022-10-18T08:12:18.518Z,26.34
2022-10-18T08:15:25.754Z,26.27
2022-10-18T08:17:54.560Z,26.25
2022-10-18T08:20:31.148Z,26.38
2022-10-18T08:23:00.844Z,26.50
2022-10-18T08:25:33.227Z,26.77
2022-10-18T08:28:07.877Z,27.24
2022-10-18T08:30:36.948Z,27.73
2022-10-18T08:33:06.140Z,28.18
2022-10-18T08:35:43.179Z,28.46
2022-10-18T08:38:18.020Z,28.50
2022-10-18T08:40:51.484Z,28.45
2022-10-18T08:43:33.178Z,28.59
2022-10-18T08:46:01.136Z,28.99
2022-10-18T08:48:41.602Z,29.43
2022-10-18T08:51:28.353Z,29.75
2022-10-18T08:54:06.490Z,29.81
2022-10-18T08:56:39.899Z,29.66
2022-10-18T08:59:11.019Z,29.54
2022-10-18T09:02:12.794Z,29.52
2022-10-18T09:04:43.588Z,29.41
2022-10-18T09:07:59.298Z,29.38
2022-10-18T09:10:53.181Z,29.54
2022-10-18T09:13:44.127Z,29.84
2022-10-18T09:16:17.635Z,29.99
2022-10-18T09:19:26.474Z,30.27
2022-10-18T09:22:05.020Z,30.77
2022-10-18T09:24:50.844Z,30.99
2022-10-18T09:27:22.640Z,31.09
2022-10-18T09:30:18.951Z,31.27
2022-10-18T09:33:01.450Z,31.37
2022-10-18T09:35:39.755Z,31.28
2022-10-18T09:38:13.334Z,31.37
2022-10-18T09:40:51.860Z,31.56
2022-10-18T09:43:37.385Z,31.74
2022-10-18T09:46:07.275Z,31.87
2022-10-18T09:48:54.508Z,31.99
2022-10-18T09:51:27.432Z,32.09
2022-10-18T09:54:15.008Z,31.77
2022-10-18T09:57:22.785Z,31.45
2022-10-18T09:59:52.815Z,31.59
2022-10-18T10:02:22.868Z,31.68
2022-10-18T10:04:55.794Z,31.59
2022-10-18T10:07:34.915Z,31.74
2022-10-18T10:10:22.446Z,31.91
2022-10-18T10:13:17.703Z,31.94
2022-10-18T10:16:04.965Z,31.86
2022-10-18T10:18:40.197Z,31.80
2022-10-18T10:21:15.769Z,31.88
2022-10-18T10:23:59.701Z,32.02
2022-10-18T10:26:32.137Z,32.12
2022-10-18T10:29:03.006Z,31.95
2022-10-18T10:31:31.832Z,31.88
2022-10-18T10:34:29.215Z,31.82
2022-10-18T10:36:58.041Z,31.74
2022-10-18T10:39:27.266Z,31.72
2022-10-18T10:42:03.077Z,31.66
2022-10-18T10:44:36.578Z,31.87
2022-10-18T10:47:06.928Z,32.21
2022-10-18T10:49:47.596Z,32.51
2022-10-18T10:52:28.340Z,32.55
2022-10-18T10:55:06.232Z,32.68
2022-10-18T10:57:54.302Z,33.04
2022-10-18T11:00:39.345Z,33.05
2022-10-18T11:03:33.754Z,32.81
2022-10-18T11:06:02.694Z,32.61
2022-10-18T11:08:41.612Z,32.75
2022-10-18T11:11:28.615Z,32.96
2022-10-18T11:14:24.630Z,33.13
2022-10-18T11:17:32.772Z,33.17
2022-10-18T11:20:09.841Z,33.46
2022-10-18T11:22:46.404Z,33.48
2022-10-18T11:25:16.780Z,33.51
2022-10-18T11:28:00.971Z,33.76
2022-10-18T11:30:29.012Z,34.09
2022-10-18T11:33:07.217Z,34.35
2022-10-18T11:35:51.412Z,34.39
2022-10-18T11:38:30.474Z,34.08
2022-10-18T11:41:49.159Z,33.94
2022-10-18T11:44:32.049Z,33.35
2022-10-18T11:47:12.367Z,33.06
2022-10-18T11:50:26.867Z,33.07
2022-10-18T11:53:16.626Z,33.61
2022-10-18T11:56:14.503Z,34.33
2022-10-18T11:58:59.893Z,35.05
2022-10-18T12:01:39.551Z,35.59
2022-10-18T12:04:24.842Z,35.52
2022-10-18T12:06:56.985Z,35.14
2022-10-18T12:09:27.874Z,34.92
2022-10-18T12:12:02.636Z,34.70
2022-10-18T12:14:41.093Z,34.38
2022-10-18T12:17:49.794Z,34.30
2022-10-18T12:20:29.789Z,34.06
2022-10-18T12:23:13.565Z,33.67
2022-10-18T12:25:51.053Z,33.40
2022-10-18T12:28:55.352Z,33.60
2022-10-18T12:31:39.955Z,34.03
2022-10-18T12:34:35.188Z,34.12
2022-10-18T12:37:42.180Z,33.82
2022-10-18T12:40:25.577Z,33.96
2022-10-18T12:42:56.247Z,34.38
2022-10-18T12:45:33.465Z,34.55
2022-10-18T12:48:07.186Z,34.15
2022-10-18T12:50:40.766Z,33.60
2022-10-18T12:53:24.074Z,33.21
2022-10-18T12:55:55.945Z,33.12
2022-10-18T12:58:32.874Z,33.03
2022-10-18T13:01:05.758Z,32.89
2022-10-18T13:03:52.002Z,32.88
2022-10-18T13:06:20.336Z,32.66
2022-10-18T13:09:20.280Z,32.83
2022-10-18T13:11:50.190Z,33.09
2022-10-18T13:14:35.597Z,33.22
2022-10-18T13:17:22.993Z,32.99
2022-10-18T13:20:31.774Z,32.48
2022-10-18T13:23:13.044Z,32.30
2022-10-18T13:26:00.328Z,32.56
2022-10-18T13:28:34.876Z,33.02
2022-10-18T13:31:03.688Z,33.40
2022-10-18T13:33:35.212Z,33.53
2022-10-18T13:36:23.416Z,33.71
2022-10-18T13:39:04.057Z,33.87
2022-10-18T13:41:57.687Z,33.67
2022-10-18T13:44:39.895Z,33.29
2022-10-18T13:47:12.609Z,32.81
2022-10-18T13:49:59.474Z,32.40
2022-10-18T13:52:46.908Z,32.12
2022-10-18T13:55:35.276Z,31.62
2022-10-18T13:58:29.624Z,31.03
2022-10-18T14:01:34.442Z,30.44
2022-10-18T14:04:31.472Z,30.01
2022-10-18T14:07:05.178Z,29.83
2022-10-18T14:09:48.663Z,29.88
2022-10-18T14:12:28.756Z,29.91
2022-10-18T14:14:56.367Z,29.66
2022-10-18T14:17:36.631Z,29.56
2022-10-18T14:20:14.714Z,29.56
2022-10-18T14:23:11.778Z,29.51
2022-10-18T14:25:39.646Z,29.35
2022-10-18T14:28:27.389Z,29.19
2022-10-18T14:31:11.301Z,28.92
2022-10-18T14:33:38.973Z,28.67
2022-10-18T14:36:14.576Z,28.50
2022-10-18T14:39:00.548Z,28.12
2022-10-18T14:42:41.251Z,27.65
2022-10-18T14:45:42.931Z,26.95
2022-10-18T14:49:19.122Z,26.44
2022-10-18T14:51:52.002Z,25.93
2022-10-18T14:54:55.450Z,25.47
2022-10-18T14:58:03.288Z,24.83
2022-10-18T15:00:38.468Z,24.18
2022-10-18T15:03:14.420Z,23.70
2022-10-18T15:06:01.747Z,23.34
2022-10-18T15:08:35.509Z,22.96
2022-10-18T15:11:03.673Z,22.72
2022-10-18T15:14:06.933Z,22.44
2022-10-18T15:16:43.762Z,22.18
2022-10-18T15:19:13.695Z,21.97
2022-10-18T15:22:19.868Z,21.78
2022-10-18T15:25:08.570Z,21.60
2022-10-18T15:27:38.212Z,21.44
2022-10-18T15:30:14.596Z,21.33
2022-10-18T15:32:55.977Z,21.24
2022-10-18T15:35:31.311Z,21.14
2022-10-18T15:38:25.395Z,21.03
2022-10-18T15:40:54.918Z,20.92
2022-10-18T15:43:23.824Z,20.84
2022-10-18T15:46:00.288Z,20.74
2022-10-18T15:48:39.692Z,20.64
2022-10-18T15:51:51.224Z,20.52
2022-10-18T15:54:30.781Z,20.38
2022-10-18T15:57:12.774Z,20.27
2022-10-18T15:59:58.056Z,20.16
2022-10-18T16:02:28.742Z,20.09
2022-10-18T16:05:01.570Z,20.04
2022-10-18T16:07:33.780Z,19.98
2022-10-18T16:10:02.008Z,19.92
2022-10-18T16:12:34.235Z,19.88
2022-10-18T16:15:04.434Z,19.83
2022-10-18T16:17:33.739Z,19.77
2022-10-18T16:20:03.907Z,19.71
2022-10-18T16:22:34.679Z,19.69
2022-10-18T16:25:11.506Z,19.66
2022-10-18T16:27:40.482Z,19.61
2022-10-18T16:30:17.404Z,19.54
2022-10-18T16:32:46.704Z,19.49
2022-10-18T16:35:19.376Z,19.42
2022-10-18T16:37:47.351Z,19.42
2022-10-18T16:40:26.222Z,19.40
2022-10-18T16:42:56.154Z,19.39
2022-10-18T16:45:23.876Z,19.34
2022-10-18T16:47:52.981Z,19.29
2022-10-18T16:50:22.904Z,19.24
2022-10-18T16:52:58.524Z,19.24
2022-10-18T16:55:30.727Z,19.26
2022-10-18T16:57:58.621Z,19.27
2022-10-18T17:00:33.362Z,19.26
2022-10-18T17:03:02.399Z,19.21
2022-10-18T17:05:32.586Z,19.18
2022-10-18T17:08:34.277Z,19.15
2022-10-18T17:11:03.624Z,19.07
2022-10-18T17:13:31.671Z,19.17
2022-10-18T17:16:02.498Z,19.16
2022-10-18T17:18:31.344Z,19.17
2022-10-18T17:21:05.597Z,19.21
2022-10-18T17:23:39.000Z,19.26
2022-10-18T17:26:28.782Z,19.29
2022-10-18T17:29:03.991Z,19.33
2022-10-18T17:32:13.582Z,19.36
2022-10-18T17:34:46.351Z,19.34
2022-10-18T17:37:15.538Z,19.30
2022-10-18T17:39:43.772Z,19.25
2022-10-18T17:42:17.498Z,19.20
2022-10-18T17:44:51.940Z,19.18
2022-10-18T17:47:22.244Z,19.16
2022-10-18T17:49:50.113Z,19.12
2022-10-18T17:52:20.227Z,19.10
2022-10-18T17:54:50.387Z,19.11
2022-10-18T17:57:19.554Z,19.12
2022-10-18T17:59:55.476Z,19.13
2022-10-18T18:02:24.474Z,19.13
2022-10-18T18:04:54.842Z,19.11
2022-10-18T18:07:26.366Z,19.02
2022-10-18T18:09:56.774Z,19.04
2022-10-18T18:12:25.065Z,19.01
2022-10-18T18:15:26.561Z,19.02
2022-10-18T18:17:57.842Z,19.00
2022-10-18T18:20:27.017Z,19.02
2022-10-18T18:22:56.175Z,19.04
2022-10-18T18:25:25.295Z,19.07
2022-10-18T18:27:54.656Z,19.09
2022-10-18T18:30:30.393Z,19.09
2022-10-18T18:33:03.928Z,19.10
2022-10-18T18:35:50.732Z,19.12
2022-10-18T18:38:29.048Z,19.03
2022-10-18T18:41:18.317Z,19.10
2022-10-18T18:44:01.801Z,19.12
2022-10-18T18:46:34.372Z,19.06
2022-10-18T18:49:08.122Z,19.00
2022-10-18T18:51:42.517Z,18.80
2022-10-18T18:54:14.550Z,18.59
2022-10-18T18:56:52.398Z,18.46
2022-10-18T18:59:26.905Z,18.15
2022-10-18T19:02:04.786Z,18.20
2022-10-18T19:04:35.428Z,18.05
2022-10-18T19:07:06.113Z,17.97
2022-10-18T19:09:38.877Z,17.90
2022-10-18T19:12:21.891Z,17.78
2022-10-18T19:14:50.238Z,17.68
2022-10-18T19:17:21.773Z,17.61
2022-10-18T19:19:52.654Z,17.53
2022-10-18T19:22:21.041Z,17.44
2022-10-18T19:24:50.628Z,17.39
2022-10-18T19:27:20.064Z,17.28
2022-10-18T19:29:50.413Z,17.20
2022-10-18T19:32:19.606Z,17.18
2022-10-18T19:34:48.022Z,17.20
2022-10-18T19:37:21.475Z,17.25
2022-10-18T19:39:49.551Z,17.27
2022-10-18T19:42:22.610Z,17.25
2022-10-18T19:44:54.185Z,17.21
2022-10-18T19:47:22.117Z,17.19
2022-10-18T19:49:52.833Z,17.19
2022-10-18T19:52:21.814Z,17.16
2022-10-18T19:54:50.711Z,17.14
2022-10-18T19:57:22.328Z,17.10
2022-10-18T19:59:50.402Z,17.04
2022-10-18T20:02:24.185Z,16.96
2022-10-18T20:04:51.915Z,16.88
2022-10-18T20:07:21.804Z,16.85
2022-10-18T20:09:53.402Z,16.78
2022-10-18T20:12:31.716Z,16.69
2022-10-18T20:15:04.687Z,16.63
2022-10-18T20:17:34.935Z,16.56
2022-10-18T20:20:08.026Z,16.49
2022-10-18T20:22:44.316Z,16.47
2022-10-18T20:25:14.214Z,16.45
2022-10-18T20:27:43.992Z,16.44
2022-10-18T20:30:12.809Z,16.40
2022-10-18T20:32:51.060Z,16.35
2022-10-18T20:35:26.508Z,16.31
2022-10-18T20:37:54.391Z,16.26
2022-10-18T20:40:23.412Z,16.19
2022-10-18T20:42:53.291Z,16.14
2022-10-18T20:45:21.202Z,16.11
2022-10-18T20:47:53.273Z,16.04
2022-10-18T20:50:22.088Z,15.99
2022-10-18T20:52:54.943Z,16.02
2022-10-18T20:55:24.986Z,16.04
2022-10-18T20:57:53.757Z,16.07
2022-10-18T21:00:21.516Z,16.09
2022-10-18T21:02:51.451Z,16.11
2022-10-18T21:05:20.228Z,16.12
2022-10-18T21:07:52.362Z,16.14
2022-10-18T21:10:32.408Z,16.16
2022-10-18T21:13:02.242Z,16.10
2022-10-18T21:15:32.681Z,16.09
2022-10-18T21:18:04.639Z,16.13
2022-10-18T21:20:42.321Z,16.15
2022-10-18T21:23:12.245Z,16.15
2022-10-18T21:25:45.275Z,16.15
2022-10-18T21:28:18.384Z,16.12
2022-10-18T21:30:54.489Z,16.07
2022-10-18T21:33:22.450Z,16.05
2022-10-18T21:35:51.356Z,16.02
2022-10-18T21:38:19.218Z,15.97
2022-10-18T21:40:48.044Z,15.91
2022-10-18T21:43:18.070Z,15.86
2022-10-18T21:45:57.707Z,15.83
2022-10-18T21:48:30.366Z,15.82
2022-10-18T21:51:08.055Z,15.81
2022-10-18T21:53:45.688Z,15.76
2022-10-18T21:56:24.022Z,15.69
2022-10-18T21:58:52.394Z,15.68
2022-10-18T22:01:32.441Z,15.68
2022-10-18T22:04:16.984Z,15.69
2022-10-18T22:06:45.833Z,15.69
2022-10-18T22:09:16.132Z,15.70
2022-10-18T22:11:50.021Z,15.77
2022-10-18T22:14:17.800Z,15.84
2022-10-18T22:16:47.655Z,15.85
2022-10-18T22:19:20.503Z,15.81
2022-10-18T22:21:49.609Z,15.78
2022-10-18T22:24:18.708Z,15.79
2022-10-18T22:26:52.330Z,15.75
2022-10-18T22:29:21.472Z,15.69
2022-10-18T22:31:53.523Z,15.67
2022-10-18T22:34:27.579Z,15.64
2022-10-18T22:37:03.491Z,15.65
2022-10-18T22:39:32.304Z,15.69
2022-10-18T22:42:02.254Z,15.77
2022-10-18T22:44:34.206Z,15.83
2022-10-18T22:47:03.189Z,15.85
2022-10-18T22:49:32.086Z,15.90
2022-10-18T22:52:05.612Z,15.95
2022-10-18T22:54:38.327Z,15.99
2022-10-18T22:57:09.334Z,16.00
2022-10-18T22:59:38.359Z,15.99
2022-10-18T23:02:10.333Z,16.00
2022-10-18T23:04:43.360Z,16.02
2022-10-18T23:07:13.354Z,16.05
2022-10-18T23:09:42.191Z,16.09
2022-10-18T23:12:12.207Z,16.11
2022-10-18T23:14:39.926Z,16.10
2022-10-18T23:17:09.724Z,16.06
2022-10-18T23:19:37.747Z,16.04
2022-10-18T23:22:05.871Z,16.05
2022-10-18T23:24:33.752Z,16.07
2022-10-18T23:27:04.090Z,16.07
2022-10-18T23:29:33.052Z,16.06
2022-10-18T23:32:04.668Z,16.08
2022-10-18T23:34:33.497Z,16.08
2022-10-18T23:37:03.364Z,16.08
2022-10-18T23:39:32.090Z,16.03
2022-10-18T23:42:00.896Z,15.97
2022-10-18T23:44:30.814Z,15.91
2022-10-18T23:46:59.760Z,15.87
2022-10-18T23:49:28.687Z,15.85
2022-10-18T23:52:02.356Z,15.85
2022-10-18T23:54:31.083Z,15.85
2022-10-18T23:57:31.584Z,15.87
